Time;durP1;ratioP1;P1;durP2;ratioP2;P2;SDS_P1;SDS_P2;PMS_P1;PMS_P2;Temp;Humidity;BMP_temperature;BMP_pressure;BME280_temperature;BME280_humidity;BME280_pressure;Samples;Min_cycle;Max_cycle;Signal;HPM_P1;HPM_P2
2022/03/27 00:01:08;;;;;;;;;9.00;9.00;;;;;21.55;38.12;102371.36;110225;1264;18877;-49
2022/03/27 00:03:35;;;;;;;;;11.33;10.33;;;;;21.56;38.35;102371.45;110232;1264;28664;-50
2022/03/27 00:06:03;;;;;;;;;8.00;6.00;;;;;21.55;38.09;102371.20;110311;1265;18929;-50
2022/03/27 00:08:30;;;;;;;;;9.33;8.33;;;;;21.54;38.16;102373.04;110192;1265;18728;-49
2022/03/27 00:13:42;;;;;;;;;8.33;8.33;;;;;21.54;38.30;102371.94;110230;1265;18678;-50
2022/03/27 00:16:10;;;;;;;;;9.33;8.67;;;;;21.53;38.23;102371.02;110115;1265;19051;-50
2022/03/27 00:18:37;;;;;;;;;9.67;9.33;;;;;21.55;38.09;102373.90;110119;1265;20030;-51
2022/03/27 00:21:04;;;;;;;;;11.33;10.67;;;;;21.55;38.18;102369.19;110210;1265;18674;-49
2022/03/27 00:23:32;;;;;;;;;10.00;9.00;;;;;21.55;38.24;102371.89;110217;1264;18820;-48
2022/03/27 00:25:59;;;;;;;;;8.00;8.00;;;;;21.56;38.26;102380.32;110236;1264;19786;-49
2022/03/27 00:28:31;;;;;;;;;10.00;10.00;;;;;21.56;37.98;102390.52;110202;1264;22849;-49
2022/03/27 00:30:59;;;;;;;;;9.00;8.33;;;;;21.56;38.15;102389.08;110181;1264;19056;-47
2022/03/27 00:33:27;;;;;;;;;10.33;8.33;;;;;21.56;38.14;102380.90;110166;1265;19461;-49
2022/03/27 00:35:54;;;;;;;;;9.00;8.00;;;;;21.54;38.02;102374.67;110281;1264;18491;-49
2022/03/27 00:38:21;;;;;;;;;9.33;9.00;;;;;21.54;38.20;102378.48;110169;1264;18855;-50
2022/03/27 00:40:50;;;;;;;;;12.00;9.50;;;;;21.54;38.05;102376.52;110227;1265;20626;-48
2022/03/27 00:43:17;;;;;;;;;9.00;8.50;;;;;21.54;38.03;102380.02;110236;1264;18594;-52
2022/03/27 00:45:44;;;;;;;;;9.00;8.00;;;;;21.54;38.25;102381.05;110170;1264;18720;-50
2022/03/27 00:48:11;;;;;;;;;12.00;10.00;;;;;21.54;38.22;102384.70;110245;1264;19528;-51
2022/03/27 00:50:39;;;;;;;;;9.00;8.00;;;;;21.55;38.04;102386.48;110230;1264;20237;-49
2022/03/27 00:53:06;;;;;;;;;9.00;8.00;;;;;21.54;38.20;102384.86;110230;1264;18893;-52
2022/03/27 00:55:33;;;;;;;;;9.00;8.00;;;;;21.54;38.34;102382.20;110197;1265;22386;-50
2022/03/27 00:58:01;;;;;;;;;8.50;8.00;;;;;21.52;38.49;102382.88;110177;1264;18652;-50
2022/03/27 01:00:28;;;;;;;;;10.00;10.00;;;;;21.52;38.14;102375.81;110235;1264;18774;-49
2022/03/27 01:02:57;;;;;;;;;8.33;6.00;;;;;21.53;38.36;102382.27;110252;1265;19766;-46
2022/03/27 01:05:24;;;;;;;;;9.00;8.00;;;;;21.53;38.29;102387.96;110181;1265;18835;-50
2022/03/27 01:07:51;;;;;;;;;8.50;8.50;;;;;21.54;38.27;102392.67;110228;1264;18723;-50
2022/03/27 01:10:18;;;;;;;;;9.00;8.00;;;;;21.54;38.09;102389.98;110221;1265;19490;-50
2022/03/27 01:12:46;;;;;;;;;12.00;10.67;;;;;21.55;38.34;102393.75;110212;1265;23379;-50
2022/03/27 01:15:13;;;;;;;;;9.67;8.00;;;;;21.54;38.22;102395.64;110186;1265;18881;-48
2022/03/27 01:17:40;;;;;;;;;8.00;7.33;;;;;21.55;38.13;102401.55;110188;1264;22196;-47
2022/03/27 01:20:07;;;;;;;;;11.33;9.33;;;;;21.54;38.03;102399.29;110199;1265;21206;-50
2022/03/27 01:22:34;;;;;;;;;9.33;8.67;;;;;21.53;38.23;102401.39;110216;1264;20199;-53
2022/03/27 01:25:02;;;;;;;;;6.00;6.00;;;;;21.54;38.16;102402.56;110173;1265;19477;-48
2022/03/27 01:27:30;;;;;;;;;6.67;6.67;;;;;21.55;38.24;102403.94;110261;1264;20229;-54
2022/03/27 01:29:59;;;;;;;;;8.00;8.00;;;;;21.56;38.17;102408.53;110203;1264;20418;-53
2022/03/27 01:32:26;;;;;;;;;8.00;7.33;;;;;21.56;38.08;102414.53;110207;1264;19775;-54
2022/03/27 01:34:54;;;;;;;;;10.00;9.00;;;;;21.55;38.06;102416.60;110194;1265;30927;-50
2022/03/27 01:37:21;;;;;;;;;8.00;8.00;;;;;21.56;38.18;102420.05;110259;1264;18759;-48
2022/03/27 01:39:48;;;;;;;;;8.33;8.00;;;;;21.55;38.27;102422.06;110185;1264;19507;-49
2022/03/27 01:42:15;;;;;;;;;9.00;8.00;;;;;21.58;37.98;102428.41;110332;1265;18630;-48
2022/03/27 01:44:42;;;;;;;;;8.50;8.50;;;;;21.56;38.17;102429.98;110189;1264;19130;-48
2022/03/27 01:47:10;;;;;;;;;6.67;6.67;;;;;21.57;38.14;102431.02;110235;1265;19979;-49
2022/03/27 01:49:37;;;;;;;;;10.67;8.67;;;;;21.57;37.95;102437.34;110229;1264;18447;-49
2022/03/27 01:52:04;;;;;;;;;9.67;8.00;;;;;21.55;38.10;102438.95;110197;1265;18810;-49
2022/03/27 01:54:32;;;;;;;;;9.00;9.00;;;;;21.56;38.36;102439.11;110149;1264;19543;-48
2022/03/27 01:56:59;;;;;;;;;8.00;8.00;;;;;21.56;38.10;102445.49;110303;1264;19081;-49
2022/03/27 01:59:26;;;;;;;;;8.00;8.00;;;;;21.55;38.17;102440.27;110261;1264;18688;-48
2022/03/27 02:01:53;;;;;;;;;8.67;8.67;;;;;21.54;38.30;102436.17;110207;1264;19469;-48
2022/03/27 02:04:21;;;;;;;;;8.00;8.00;;;;;21.54;38.03;102435.99;110191;1265;18609;-48
2022/03/27 02:06:48;;;;;;;;;9.00;8.00;;;;;21.53;38.31;102434.10;110162;1265;24992;-47
2022/03/27 02:09:15;;;;;;;;;9.00;9.00;;;;;21.53;38.10;102436.67;110214;1265;19527;-48
2022/03/27 02:11:42;;;;;;;;;9.33;9.00;;;;;21.53;38.36;102435.91;110171;1265;22226;-48
2022/03/27 02:14:09;;;;;;;;;9.00;8.33;;;;;21.54;38.14;102431.86;110185;1264;18994;-49
2022/03/27 02:16:37;;;;;;;;;8.00;7.33;;;;;21.52;38.37;102425.98;110167;1264;20054;-49
2022/03/27 02:19:04;;;;;;;;;6.00;6.00;;;;;21.51;38.30;102420.84;110119;1265;18591;-48
2022/03/27 02:21:31;;;;;;;;;6.00;6.00;;;;;21.51;38.19;102420.64;110186;1265;25502;-49
2022/03/27 02:23:58;;;;;;;;;8.00;8.00;;;;;21.52;38.25;102428.23;110230;1264;19859;-49
2022/03/27 02:26:25;;;;;;;;;9.00;7.00;;;;;21.53;38.29;102432.50;110227;1264;18483;-51
2022/03/27 02:28:53;;;;;;;;;8.67;8.00;;;;;21.52;38.21;102429.80;110145;1264;19037;-48
2022/03/27 02:31:20;;;;;;;;;6.00;6.00;;;;;21.52;38.17;102428.55;110128;1265;22198;-50
2022/03/27 02:33:48;;;;;;;;;8.67;8.33;;;;;21.51;38.21;102431.73;110122;1264;18602;-49
2022/03/27 02:36:16;;;;;;;;;9.67;9.00;;;;;21.53;38.22;102435.59;110200;1264;18724;-48
2022/03/27 02:38:44;;;;;;;;;9.00;8.00;;;;;21.54;38.04;102439.98;110153;1264;20295;-48
2022/03/27 02:41:11;;;;;;;;;9.00;8.00;;;;;21.53;37.95;102438.86;110232;1264;18554;-48
2022/03/27 02:43:38;;;;;;;;;8.00;8.00;;;;;21.56;37.99;102447.81;110239;1264;18719;-49
2022/03/27 02:46:06;;;;;;;;;9.00;9.00;;;;;21.58;37.92;102452.05;110120;1265;20965;-47
2022/03/27 02:48:33;;;;;;;;;10.00;7.33;;;;;21.55;37.98;102455.14;110211;1264;18489;-48
2022/03/27 02:51:00;;;;;;;;;9.00;9.00;;;;;21.57;37.96;102456.50;110138;1265;18828;-48
2022/03/27 02:53:27;;;;;;;;;9.00;6.00;;;;;21.56;38.16;102454.71;110229;1264;19498;-48
2022/03/27 02:55:54;;;;;;;;;9.67;8.00;;;;;21.56;38.10;102458.02;110216;1264;18600;-49
2022/03/27 02:58:22;;;;;;;;;11.00;8.50;;;;;21.57;38.03;102462.30;110167;1264;20453;-48
2022/03/27 03:00:49;;;;;;;;;9.00;9.00;;;;;21.56;38.09;102456.92;110106;1265;20522;-47
2022/03/27 03:03:16;;;;;;;;;13.33;12.00;;;;;21.56;37.90;102463.82;110265;1265;18716;-48
2022/03/27 03:05:43;;;;;;;;;9.00;9.00;;;;;21.56;38.05;102465.08;110154;1265;18879;-49
2022/03/27 03:08:12;;;;;;;;;9.67;7.33;;;;;21.57;37.89;102468.50;110181;1264;22441;-46
2022/03/27 03:10:39;;;;;;;;;8.00;8.00;;;;;21.55;38.15;102466.64;110159;1265;18591;-48
2022/03/27 03:13:08;;;;;;;;;8.00;8.00;;;;;21.56;38.07;102465.86;110194;1265;19061;-46
2022/03/27 03:15:35;;;;;;;;;10.00;8.00;;;;;21.55;38.15;102468.81;110154;1265;21814;-50
2022/03/27 03:18:02;;;;;;;;;8.00;8.00;;;;;21.54;38.31;102469.66;110281;1264;21812;-54
2022/03/27 03:20:30;;;;;;;;;12.33;10.67;;;;;21.55;38.05;102471.98;110166;1264;18828;-50
2022/03/27 03:22:57;;;;;;;;;9.33;9.33;;;;;21.53;37.98;102468.63;110104;1264;19655;-51
2022/03/27 03:25:24;;;;;;;;;10.67;10.00;;;;;21.53;37.88;102475.23;110192;1265;18832;-48
2022/03/27 03:27:51;;;;;;;;;10.00;8.00;;;;;21.53;37.92;102478.13;110169;1265;19461;-45
2022/03/27 03:30:19;;;;;;;;;9.00;8.33;;;;;21.56;38.04;102474.19;110183;1265;19662;-52
2022/03/27 03:32:46;;;;;;;;;8.00;8.00;;;;;21.58;37.96;102477.83;110159;1265;18808;-50
2022/03/27 03:35:13;;;;;;;;;9.33;8.00;;;;;21.58;37.98;102472.33;110182;1265;18891;-51
2022/03/27 03:37:40;;;;;;;;;10.00;9.33;;;;;21.57;38.12;102470.42;110272;1264;19407;-49
2022/03/27 03:40:08;;;;;;;;;8.50;8.50;;;;;21.56;38.29;102473.95;110190;1265;18638;-51
2022/03/27 03:42:35;;;;;;;;;10.00;10.00;;;;;21.56;38.18;102472.79;110156;1265;18846;-52
2022/03/27 03:45:02;;;;;;;;;9.67;8.67;;;;;21.55;38.23;102474.31;110068;1265;19653;-45
2022/03/27 03:47:29;;;;;;;;;9.33;8.33;;;;;21.56;38.32;102473.90;110102;1264;20090;-46
2022/03/27 03:49:56;;;;;;;;;6.00;6.00;;;;;21.55;38.02;102476.44;110183;1265;18870;-52
2022/03/27 03:52:24;;;;;;;;;8.33;8.00;;;;;21.54;38.17;102474.94;110191;1265;19642;-49
2022/03/27 03:54:51;;;;;;;;;9.67;8.67;;;;;21.53;38.31;102477.20;110108;1265;18486;-49
2022/03/27 03:57:18;;;;;;;;;11.33;9.67;;;;;21.54;38.15;102475.52;110150;1265;22293;-54
2022/03/27 03:59:46;;;;;;;;;9.00;8.00;;;;;21.54;38.00;102476.00;110197;1264;19960;-52
2022/03/27 04:02:18;;;;;;;;;8.67;7.33;;;;;21.55;37.90;102471.92;110176;1264;18746;-50
2022/03/27 04:04:45;;;;;;;;;9.33;8.67;;;;;21.54;38.07;102469.63;110202;1264;18636;-48
2022/03/27 04:07:13;;;;;;;;;9.33;8.67;;;;;21.54;38.16;102469.86;110181;1264;19643;-48
2022/03/27 04:09:40;;;;;;;;;8.00;8.00;;;;;21.53;37.91;102475.37;110238;1264;20297;-51
2022/03/27 04:12:08;;;;;;;;;8.33;7.33;;;;;21.54;38.08;102476.80;110229;1264;21792;-48
2022/03/27 04:14:36;;;;;;;;;9.00;9.00;;;;;21.53;38.06;102476.86;110174;1264;19633;-48
2022/03/27 04:17:03;;;;;;;;;9.00;9.00;;;;;21.53;37.95;102484.30;110146;1264;21883;-47
2022/03/27 04:19:30;;;;;;;;;8.00;7.33;;;;;21.54;38.00;102482.17;110208;1264;22933;-48
2022/03/27 04:21:57;;;;;;;;;9.00;8.00;;;;;21.54;38.05;102489.33;110281;1264;19577;-49
2022/03/27 04:24:25;;;;;;;;;9.00;9.00;;;;;21.53;38.16;102492.11;110211;1265;22822;-50
2022/03/27 04:26:52;;;;;;;;;9.00;9.00;;;;;21.54;38.12;102494.01;110190;1264;20385;-48
2022/03/27 04:29:19;;;;;;;;;8.00;6.00;;;;;21.53;38.10;102484.85;110202;1265;19633;-49
2022/03/27 04:31:46;;;;;;;;;10.00;8.00;;;;;21.53;37.88;102490.99;110214;1264;18563;-48
2022/03/27 04:34:13;;;;;;;;;8.00;8.00;;;;;21.52;38.03;102493.69;110174;1265;18752;-48
2022/03/27 04:36:41;;;;;;;;;9.00;8.00;;;;;21.52;38.11;102494.22;110256;1264;22125;-48
2022/03/27 04:39:09;;;;;;;;;9.33;8.00;;;;;21.52;38.17;102496.41;110150;1264;18455;-50
2022/03/27 04:41:36;;;;;;;;;8.00;8.00;;;;;21.53;38.05;102495.97;110213;1264;18841;-48
2022/03/27 04:44:03;;;;;;;;;8.33;6.67;;;;;21.53;38.11;102495.24;110165;1264;19818;-48
2022/03/27 04:46:30;;;;;;;;;9.67;8.33;;;;;21.53;38.22;102494.55;110209;1264;18650;-50
2022/03/27 04:48:57;;;;;;;;;11.67;10.33;;;;;21.52;38.09;102491.83;110185;1265;18770;-48
2022/03/27 04:51:25;;;;;;;;;8.67;8.67;;;;;21.52;38.02;102493.34;110193;1265;21962;-48
2022/03/27 04:53:52;;;;;;;;;9.50;8.50;;;;;21.52;38.06;102490.23;110151;1264;18857;-48
2022/03/27 04:56:19;;;;;;;;;12.00;11.00;;;;;21.52;37.95;102488.92;110176;1265;22920;-48
2022/03/27 04:58:46;;;;;;;;;9.67;8.33;;;;;21.52;38.15;102490.21;110213;1264;19933;-49
2022/03/27 05:01:14;;;;;;;;;9.67;8.67;;;;;21.52;37.80;102490.02;110151;1264;19831;-48
2022/03/27 05:03:41;;;;;;;;;11.00;9.33;;;;;21.53;37.99;102491.59;110169;1265;18745;-48
2022/03/27 05:06:08;;;;;;;;;11.00;9.50;;;;;21.54;38.14;102490.73;110172;1265;21203;-49
2022/03/27 05:08:35;;;;;;;;;9.00;8.67;;;;;21.54;38.03;102495.67;110209;1264;18794;-49
2022/03/27 05:11:03;;;;;;;;;8.67;7.67;;;;;21.54;37.98;102497.11;110200;1264;18850;-54
2022/03/27 05:13:30;;;;;;;;;10.33;9.00;;;;;21.55;37.91;102495.94;110202;1265;22797;-52
2022/03/27 05:15:57;;;;;;;;;7.50;7.50;;;;;21.57;38.05;102500.31;110241;1264;18397;-50
2022/03/27 05:18:24;;;;;;;;;12.50;11.00;;;;;21.56;37.84;102500.55;110313;1265;18709;-49
2022/03/27 05:20:52;;;;;;;;;9.67;9.67;;;;;21.57;37.87;102511.52;110224;1264;19647;-50
2022/03/27 05:23:19;;;;;;;;;6.67;6.67;;;;;21.60;37.81;102517.00;110226;1264;18749;-49
2022/03/27 05:25:48;;;;;;;;;9.00;8.00;;;;;21.63;37.80;102521.80;110258;1264;18941;-50
2022/03/27 05:28:16;;;;;;;;;9.33;9.00;;;;;21.62;37.72;102518.77;110264;1264;19538;-49
2022/03/27 05:30:43;;;;;;;;;10.00;9.00;;;;;21.64;37.65;102525.16;110240;1264;18494;-50
2022/03/27 05:33:10;;;;;;;;;8.00;8.00;;;;;21.66;37.85;102538.14;110233;1264;18846;-49
2022/03/27 05:35:38;;;;;;;;;8.67;7.33;;;;;21.66;37.81;102537.22;110226;1265;19774;-49
2022/03/27 05:38:05;;;;;;;;;9.50;8.50;;;;;21.68;37.90;102544.86;110217;1264;18602;-49
2022/03/27 05:40:32;;;;;;;;;10.00;9.00;;;;;21.68;37.72;102542.67;110247;1264;18957;-50
2022/03/27 05:43:00;;;;;;;;;16.00;11.33;;;;;21.71;37.63;102555.08;110266;1264;20094;-50
2022/03/27 05:45:27;;;;;;;;;9.50;9.00;;;;;21.73;37.62;102553.98;110320;1264;20041;-50
2022/03/27 05:47:54;;;;;;;;;9.00;8.33;;;;;21.75;37.51;102556.88;110171;1265;19962;-48
2022/03/27 05:50:22;;;;;;;;;9.00;8.67;;;;;21.78;37.65;102563.40;110183;1265;19567;-49
2022/03/27 05:52:49;;;;;;;;;9.67;9.00;;;;;21.81;37.49;102564.36;110216;1264;18536;-49
2022/03/27 05:55:16;;;;;;;;;11.00;9.00;;;;;21.82;37.47;102572.13;110241;1264;18733;-50
2022/03/27 05:57:43;;;;;;;;;11.33;9.00;;;;;21.85;37.31;102576.76;110241;1265;19601;-52
2022/03/27 06:00:12;;;;;;;;;8.00;8.00;;;;;21.88;37.50;102579.34;110236;1264;19024;-50
2022/03/27 06:02:39;;;;;;;;;7.33;7.33;;;;;21.92;37.50;102576.06;110179;1264;19034;-47
2022/03/27 06:05:06;;;;;;;;;8.50;8.50;;;;;21.97;37.46;102582.95;110224;1265;19393;-50
2022/03/27 06:07:34;;;;;;;;;10.00;9.00;;;;;21.99;37.41;102585.27;110250;1264;19264;-50
2022/03/27 06:10:01;;;;;;;;;19.00;17.00;;;;;21.88;36.46;102593.77;110247;1264;20343;-47
2022/03/27 06:12:28;;;;;;;;;21.67;20.00;;;;;21.45;32.61;102598.91;110251;1264;19806;-49
2022/03/27 06:14:56;;;;;;;;;19.00;19.00;;;;;21.25;31.02;102601.34;110172;1264;18812;-50
2022/03/27 06:17:23;;;;;;;;;23.50;20.00;;;;;21.30;30.70;102605.82;110238;1264;18818;-50
2022/03/27 06:19:50;;;;;;;;;23.67;22.00;;;;;21.33;29.96;102599.20;110246;1264;19794;-50
2022/03/27 06:22:17;;;;;;;;;21.50;20.50;;;;;21.37;30.77;102596.39;110147;1264;22948;-51
2022/03/27 06:24:45;;;;;;;;;25.33;22.33;;;;;21.39;30.53;102602.04;110151;1264;18792;-54
2022/03/27 06:27:13;;;;;;;;;26.33;25.00;;;;;21.38;30.01;102597.71;110201;1264;19716;-49
2022/03/27 06:29:40;;;;;;;;;24.67;22.00;;;;;21.34;29.87;102596.58;110262;1264;18845;-49
2022/03/27 06:32:08;;;;;;;;;23.00;21.00;;;;;21.32;29.77;102599.46;110237;1264;18683;-49
2022/03/27 06:34:36;;;;;;;;;25.33;24.33;;;;;21.27;29.45;102598.48;110209;1264;19706;-49
2022/03/27 06:37:03;;;;;;;;;23.00;21.00;;;;;21.22;29.32;102599.49;110157;1264;18956;-50
2022/03/27 06:39:31;;;;;;;;;22.67;18.33;;;;;21.30;30.43;102593.71;110173;1266;19041;-48
2022/03/27 06:41:58;;;;;;;;;21.33;20.00;;;;;21.39;30.56;102592.58;110106;1265;21369;-47
2022/03/27 06:44:25;;;;;;;;;21.33;18.67;;;;;21.44;30.07;102598.25;110106;1265;18892;-49
2022/03/27 06:46:52;;;;;;;;;23.67;19.33;;;;;21.49;29.97;102600.05;110133;1265;20203;-49
2022/03/27 06:49:19;;;;;;;;;20.67;19.33;;;;;21.50;30.32;102596.64;110107;1265;21059;-49
2022/03/27 06:51:47;;;;;;;;;23.33;21.00;;;;;21.51;30.16;102592.76;110128;1265;20513;-50
2022/03/27 06:54:14;;;;;;;;;20.67;17.00;;;;;21.53;30.46;102588.76;110172;1265;19144;-50
2022/03/27 06:56:42;;;;;;;;;21.00;20.67;;;;;21.54;30.42;102591.55;110108;1265;19616;-49
2022/03/27 06:59:09;;;;;;;;;20.00;17.33;;;;;21.54;30.75;102592.42;110105;1265;18813;-50
2022/03/27 07:04:22;;;;;;;;;18.33;16.33;;;;;21.57;31.37;102598.72;110107;1267;19653;-50
2022/03/27 07:06:49;;;;;;;;;19.33;17.33;;;;;21.56;31.68;102594.45;109967;1266;18708;-49
2022/03/27 07:09:18;;;;;;;;;19.33;17.00;;;;;21.60;31.82;102598.09;111686;1265;18913;-51
2022/03/27 07:11:46;;;;;;;;;20.00;17.00;;;;;21.65;32.03;102594.78;111700;1264;19622;-49
2022/03/27 07:14:14;;;;;;;;;16.00;14.00;;;;;21.69;32.21;102600.05;110389;1265;18862;-47
2022/03/27 07:16:41;;;;;;;;;20.67;17.00;;;;;21.72;32.19;102603.73;109983;1264;19474;-49
2022/03/27 07:19:11;;;;;;;;;18.00;16.00;;;;;21.74;32.48;102602.70;109966;1266;19390;-47
2022/03/27 07:21:38;;;;;;;;;16.33;14.00;;;;;21.76;32.67;102603.23;110113;1267;18868;-53
2022/03/27 07:24:05;;;;;;;;;17.00;17.00;;;;;21.78;32.92;102613.08;110172;1267;18854;-49
2022/03/27 07:26:33;;;;;;;;;18.00;16.00;;;;;21.77;33.22;102611.69;110151;1265;21117;-49
2022/03/27 07:29:01;;;;;;;;;20.67;17.67;;;;;21.80;33.19;102616.86;110126;1265;18688;-49
2022/03/27 07:31:28;;;;;;;;;19.67;16.67;;;;;21.85;33.62;102616.80;110174;1264;19097;-49
2022/03/27 07:33:56;;;;;;;;;17.00;16.00;;;;;21.90;33.85;102611.98;110131;1266;19658;-49
2022/03/27 07:36:23;;;;;;;;;20.50;17.00;;;;;21.91;33.97;102610.64;110202;1268;19645;-49
2022/03/27 07:38:50;;;;;;;;;15.00;14.00;;;;;21.88;34.49;102614.33;110108;1264;21493;-49
2022/03/27 07:41:18;;;;;;;;;23.67;20.00;;;;;21.86;34.57;102609.61;110127;1265;19571;-50
2022/03/27 07:43:45;;;;;;;;;74.67;57.00;;;;;21.89;34.43;102608.45;110181;1264;18902;-49
2022/03/27 07:46:13;;;;;;;;;93.50;65.50;;;;;21.91;34.68;102610.27;110185;1265;22250;-53
2022/03/27 07:48:40;;;;;;;;;102.67;82.00;;;;;21.93;34.73;102608.92;110169;1265;19705;-51
2022/03/27 07:51:08;;;;;;;;;147.00;112.50;;;;;21.97;34.90;102612.38;110177;1264;18909;-52
2022/03/27 07:53:35;;;;;;;;;149.50;117.00;;;;;22.01;34.85;102609.46;109958;1265;285110;-52
2022/03/27 07:56:03;;;;;;;;;166.75;127.00;;;;;22.08;35.02;102608.84;110141;1264;19549;-49
2022/03/27 07:58:31;;;;;;;;;157.00;115.33;;;;;22.17;34.90;102612.83;110126;1265;19045;-52
2022/03/27 08:00:58;;;;;;;;;138.50;102.00;;;;;22.25;35.05;102608.93;110115;1265;18931;-50
2022/03/27 08:03:25;;;;;;;;;137.00;102.75;;;;;22.28;35.08;102603.76;110137;1264;21198;-51
2022/03/27 08:05:52;;;;;;;;;125.00;96.00;;;;;22.34;35.75;102597.21;110127;1264;19366;-55
2022/03/27 08:08:20;;;;;;;;;115.00;90.00;;;;;22.45;35.69;102595.27;110060;1265;18955;-53
2022/03/27 08:10:47;;;;;;;;;115.00;87.33;;;;;22.50;35.90;102595.01;109972;1264;19662;-56
2022/03/27 08:13:14;;;;;;;;;104.00;81.50;;;;;22.50;35.92;102586.40;110178;1265;19220;-52
2022/03/27 08:15:41;;;;;;;;;112.33;83.67;;;;;22.54;36.14;102580.17;110069;1265;18817;-52
2022/03/27 08:18:08;;;;;;;;;105.50;79.00;;;;;22.59;36.20;102574.42;110259;1264;21822;-51
2022/03/27 08:20:36;;;;;;;;;99.50;75.50;;;;;22.63;36.33;102570.42;110177;1264;19238;-51
2022/03/27 08:23:03;;;;;;;;;96.00;71.00;;;;;22.60;35.83;102570.71;110181;1264;19299;-47
2022/03/27 08:28:16;;;;;;;;;59.00;46.00;;;;;22.28;33.55;102576.77;110133;1265;21535;-53
2022/03/27 08:30:44;;;;;;;;;59.00;46.00;;;;;22.12;30.81;102569.39;110167;1265;18869;-51
2022/03/27 08:33:11;;;;;;;;;44.67;37.67;;;;;22.00;29.92;102562.98;110173;1265;19431;-54
2022/03/27 08:35:41;;;;;;;;;36.00;32.00;;;;;21.85;28.93;102563.95;110206;1265;18750;-55
2022/03/27 08:38:09;;;;;;;;;26.00;25.33;;;;;21.84;28.53;102572.85;110177;1265;18922;-51
2022/03/27 08:40:36;;;;;;;;;26.33;24.33;;;;;21.79;27.39;102566.93;110170;1265;19637;-52
2022/03/27 08:43:03;;;;;;;;;24.00;20.33;;;;;21.70;26.68;102565.17;110169;1265;18993;-52
2022/03/27 08:45:31;;;;;;;;;21.33;18.00;;;;;21.69;26.18;102566.37;110227;1265;18841;-52
2022/03/27 08:47:58;;;;;;;;;21.67;20.33;;;;;21.69;26.10;102564.56;110154;1264;19574;-51
2022/03/27 08:50:25;;;;;;;;;27.00;23.00;;;;;21.69;25.87;102561.26;110201;1265;19595;-52
2022/03/27 08:52:53;;;;;;;;;17.00;15.00;;;;;21.70;25.89;102556.23;110120;1264;22271;-58
2022/03/27 08:55:20;;;;;;;;;29.00;25.33;;;;;21.74;25.97;102552.63;110185;1265;22230;-54
2022/03/27 08:57:47;;;;;;;;;28.00;22.00;;;;;21.79;27.52;102564.14;109980;1264;18937;-55
2022/03/27 09:00:14;;;;;;;;;24.67;22.00;;;;;21.79;27.01;102562.50;110133;1265;18767;-54
2022/03/27 09:02:42;;;;;;;;;25.67;22.33;;;;;21.79;26.14;102556.92;110083;1264;19701;-57
2022/03/27 09:05:09;;;;;;;;;19.33;18.33;;;;;21.79;25.95;102561.58;110146;1264;22462;-54
2022/03/27 09:07:36;;;;;;;;;14.33;14.00;;;;;21.78;25.10;102561.21;110144;1264;19143;-54
2022/03/27 09:10:03;;;;;;;;;14.00;13.33;;;;;21.72;24.56;102560.62;110154;1265;19584;-54
2022/03/27 09:12:31;;;;;;;;;11.33;9.67;;;;;21.53;24.25;102557.42;110190;1264;21240;-54
2022/03/27 09:14:58;;;;;;;;;12.00;9.67;;;;;21.48;23.96;102555.00;110141;1264;22245;-55
2022/03/27 09:17:26;;;;;;;;;12.33;11.33;;;;;21.48;23.84;102557.77;110200;1264;19698;-57
2022/03/27 09:19:53;;;;;;;;;9.00;8.33;;;;;21.40;24.29;102554.30;110058;1264;19818;-57
2022/03/27 09:22:21;;;;;;;;;10.00;9.00;;;;;21.39;24.09;102545.98;110171;1265;18778;-56
2022/03/27 09:24:48;;;;;;;;;7.00;6.00;;;;;21.45;24.14;102540.68;110124;1264;22737;-55
2022/03/27 09:27:16;;;;;;;;;9.00;8.67;;;;;21.49;23.79;102527.08;110245;1264;20166;-56
2022/03/27 09:29:43;;;;;;;;;8.00;8.00;;;;;21.49;23.43;102527.96;110165;1264;18675;-55
2022/03/27 09:32:10;;;;;;;;;5.33;5.00;;;;;21.46;23.46;102525.48;110176;1265;19584;-53
2022/03/27 09:34:38;;;;;;;;;6.00;5.00;;;;;21.44;22.98;102525.51;110182;1264;18517;-54
2022/03/27 09:37:05;;;;;;;;;5.00;5.00;;;;;21.40;23.11;102522.80;109964;1265;18780;-55
2022/03/27 09:39:33;;;;;;;;;5.00;5.00;;;;;21.36;23.19;102518.59;110070;1265;19537;-57
2022/03/27 09:42:01;;;;;;;;;6.00;5.00;;;;;21.27;22.89;102505.38;109978;1265;18706;-56
2022/03/27 09:44:28;;;;;;;;;5.00;5.00;;;;;21.27;22.93;102500.29;110002;1265;18892;-55
2022/03/27 09:46:55;;;;;;;;;6.00;4.00;;;;;21.21;23.21;102502.33;110004;1265;19387;-55
2022/03/27 09:49:23;;;;;;;;;4.67;4.67;;;;;21.23;23.62;102510.44;110078;1265;19034;-56
2022/03/27 09:51:50;;;;;;;;;4.33;4.33;;;;;21.26;23.43;102510.52;110241;1264;18710;-52
2022/03/27 09:54:17;;;;;;;;;4.33;4.33;;;;;21.29;23.29;102506.65;110219;1265;19779;-55
2022/03/27 09:56:44;;;;;;;;;5.67;4.00;;;;;21.33;23.03;102501.75;110046;1265;18620;-56
2022/03/27 09:59:11;;;;;;;;;5.00;4.00;;;;;21.34;22.84;102494.94;110100;1264;18750;-56
2022/03/27 10:01:39;;;;;;;;;4.00;4.00;;;;;21.33;22.79;102495.38;110128;1264;21938;-54
2022/03/27 10:04:08;;;;;;;;;5.33;5.33;;;;;21.35;22.42;102494.70;110136;1264;18520;-58
2022/03/27 10:06:36;;;;;;;;;5.67;5.00;;;;;21.32;22.46;102485.32;110161;1264;18883;-57
2022/03/27 10:09:03;;;;;;;;;6.00;6.00;;;;;21.24;22.28;102475.64;110140;1265;20395;-56
2022/03/27 10:11:31;;;;;;;;;5.00;5.00;;;;;21.25;22.22;102471.61;110096;1265;32616;-57
2022/03/27 10:13:58;;;;;;;;;7.00;6.00;;;;;21.22;22.11;102478.36;110148;1264;18648;-55
2022/03/27 10:16:26;;;;;;;;;4.33;4.00;;;;;21.18;22.26;102474.51;110190;1265;20966;-56
2022/03/27 10:18:53;;;;;;;;;6.00;6.00;;;;;21.22;21.93;102466.60;110194;1264;18746;-58
2022/03/27 10:21:20;;;;;;;;;5.00;5.00;;;;;21.24;21.99;102464.42;110172;1265;19155;-55
2022/03/27 10:23:48;;;;;;;;;6.00;5.67;;;;;21.23;21.84;102467.19;110213;1265;19461;-57
2022/03/27 10:26:16;;;;;;;;;4.00;4.00;;;;;21.17;21.67;102459.77;110190;1265;18684;-57
2022/03/27 10:28:43;;;;;;;;;4.00;4.00;;;;;21.15;21.79;102458.27;110165;1264;20117;-57
2022/03/27 10:31:10;;;;;;;;;5.00;5.00;;;;;21.14;21.56;102452.56;110181;1265;19638;-53
2022/03/27 10:33:38;;;;;;;;;4.33;2.67;;;;;21.15;21.90;102449.23;110137;1265;19974;-58
2022/03/27 10:36:05;;;;;;;;;4.33;4.33;;;;;21.13;21.58;102443.75;110196;1265;18693;-55
2022/03/27 10:38:33;;;;;;;;;4.33;4.33;;;;;21.11;21.45;102442.50;110177;1264;21322;-56
2022/03/27 10:41:00;;;;;;;;;5.00;5.00;;;;;21.07;21.41;102440.05;110184;1265;19091;-54
2022/03/27 10:43:27;;;;;;;;;5.00;5.00;;;;;21.08;21.35;102430.92;110147;1265;18719;-54
2022/03/27 10:45:54;;;;;;;;;5.00;5.00;;;;;21.06;21.55;102425.41;110156;1265;21043;-54
2022/03/27 10:48:23;;;;;;;;;8.00;6.00;;;;;20.84;21.64;102418.70;110219;1264;19179;-55
2022/03/27 10:50:50;;;;;;;;;8.67;8.33;;;;;20.83;21.55;102422.77;110207;1265;19204;-57
2022/03/27 10:53:17;;;;;;;;;8.00;8.00;;;;;20.88;21.39;102417.05;110209;1265;19535;-57
2022/03/27 10:55:45;;;;;;;;;9.67;9.00;;;;;20.93;21.74;102418.60;110192;1264;19599;-54
2022/03/27 10:58:12;;;;;;;;;10.67;10.67;;;;;20.94;21.63;102412.69;110230;1264;19406;-60
2022/03/27 11:00:39;;;;;;;;;12.00;10.67;;;;;20.97;21.74;102408.84;110263;1264;19428;-56
2022/03/27 11:03:07;;;;;;;;;13.67;12.33;;;;;20.99;21.72;102402.46;110192;1264;22278;-56
2022/03/27 11:05:35;;;;;;;;;12.67;12.00;;;;;20.99;21.80;102403.00;110186;1265;18986;-61
2022/03/27 11:08:02;;;;;;;;;9.00;9.00;;;;;21.03;21.74;102403.56;110224;1264;22896;-55
2022/03/27 11:10:29;;;;;;;;;9.00;9.00;;;;;21.00;21.47;102403.96;110171;1264;18900;-55
2022/03/27 11:12:56;;;;;;;;;9.00;8.50;;;;;20.99;21.64;102400.61;110176;1265;18914;-60
2022/03/27 11:15:23;;;;;;;;;8.00;8.00;;;;;20.99;21.47;102391.52;110212;1264;20645;-54
2022/03/27 11:17:52;;;;;;;;;9.00;9.00;;;;;20.98;21.76;102389.67;110211;1264;19350;-57